createdAt,value
2023-02-03T00:00:23.457Z,1.23
2023-02-03T00:03:46.284Z,1.75
2023-02-03T00:07:08.733Z,1.92
2023-02-03T00:10:31.564Z,1.10
2023-02-03T00:13:55.321Z,1.35
2023-02-03T00:17:17.781Z,1.60
2023-02-03T00:20:42.671Z,1.37
2023-02-03T00:24:05.171Z,0.50
2023-02-03T00:27:27.408Z,0.75
2023-02-03T00:30:54.100Z,1.30
2023-02-03T00:34:16.715Z,0.98
2023-02-03T00:37:39.021Z,1.77
2023-02-03T00:41:02.504Z,0.85
2023-02-03T00:44:27.679Z,0.77
2023-02-03T00:47:53.651Z,0.55
2023-02-03T00:51:16.346Z,1.07
2023-02-03T00:54:38.837Z,0.88
2023-02-03T00:58:01.338Z,1.02
2023-02-03T01:01:23.873Z,0.80
2023-02-03T01:04:48.540Z,1.27
2023-02-03T01:08:10.938Z,1.50
2023-02-03T01:11:33.876Z,0.95
2023-02-03T01:14:56.380Z,0.62
2023-02-03T01:18:21.173Z,0.93
2023-02-03T01:21:45.604Z,0.80
2023-02-03T01:25:09.548Z,0.88
2023-02-03T01:28:32.871Z,0.87
2023-02-03T01:31:55.584Z,0.65
2023-02-03T01:35:18.041Z,0.35
2023-02-03T01:38:42.451Z,1.05
2023-02-03T01:42:05.992Z,1.17
2023-02-03T01:45:28.477Z,0.40
2023-02-03T01:48:50.942Z,0.90
2023-02-03T01:52:13.289Z,1.00
2023-02-03T01:55:38.670Z,0.80
2023-02-03T01:59:01.440Z,0.85
2023-02-03T02:02:24.971Z,0.90
2023-02-03T02:05:49.661Z,0.60
2023-02-03T02:09:11.979Z,0.90
2023-02-03T02:12:38.804Z,0.40
2023-02-03T02:16:07.011Z,0.30
2023-02-03T02:19:53.867Z,0.43
2023-02-03T02:23:38.012Z,0.80
2023-02-03T02:27:10.679Z,0.98
2023-02-03T02:30:55.966Z,0.82
2023-02-03T02:34:23.865Z,0.95
2023-02-03T02:37:50.659Z,0.70
2023-02-03T02:41:17.151Z,0.85
2023-02-03T02:44:42.413Z,0.93
2023-02-03T02:48:08.343Z,1.27
2023-02-03T02:51:32.416Z,0.90
2023-02-03T02:54:56.297Z,1.12
2023-02-03T02:58:19.166Z,1.73
2023-02-03T03:01:42.371Z,1.48
2023-02-03T03:05:05.390Z,1.20
2023-02-03T03:08:31.848Z,0.68
2023-02-03T03:11:55.669Z,1.00
2023-02-03T03:15:22.294Z,1.10
2023-02-03T03:18:45.565Z,1.17
2023-02-03T03:22:09.404Z,1.12
2023-02-03T03:25:35.867Z,1.25
2023-02-03T03:29:02.228Z,3.10
2023-02-03T03:32:24.581Z,2.67
2023-02-03T03:35:49.356Z,1.83
2023-02-03T03:39:15.025Z,1.70
2023-02-03T03:46:04.281Z,1.30
2023-02-03T03:49:27.183Z,1.20
2023-02-03T03:52:49.774Z,1.83
2023-02-03T03:56:14.778Z,0.90
2023-02-03T03:59:39.400Z,1.20
2023-02-03T04:03:03.635Z,1.00
2023-02-03T04:06:26.167Z,0.98
2023-02-03T04:09:48.550Z,0.90
2023-02-03T04:13:11.759Z,1.00
2023-02-03T04:16:35.564Z,0.70
2023-02-03T04:19:58.420Z,1.20
2023-02-03T04:23:20.748Z,1.17
2023-02-03T04:26:43.224Z,1.30
2023-02-03T04:30:06.105Z,0.77
2023-02-03T04:33:30.174Z,0.65
2023-02-03T04:36:52.625Z,0.60
2023-02-03T04:40:15.138Z,0.87
2023-02-03T04:43:37.753Z,1.08
2023-02-03T04:47:00.223Z,1.58
2023-02-03T04:50:24.326Z,1.62
2023-02-03T04:53:47.327Z,1.10
2023-02-03T04:57:09.759Z,1.10
2023-02-03T05:00:32.374Z,0.82
2023-02-03T05:03:54.991Z,1.27
2023-02-03T05:07:21.284Z,1.45
2023-02-03T05:10:43.454Z,1.75
2023-02-03T05:14:06.096Z,1.65
2023-02-03T05:17:28.313Z,1.85
2023-02-03T05:20:50.795Z,2.08
2023-02-03T05:24:14.557Z,1.48
2023-02-03T05:27:39.031Z,2.00
2023-02-03T05:31:01.612Z,1.50
2023-02-03T05:34:24.460Z,1.90
2023-02-03T05:37:46.940Z,2.70
2023-02-03T05:41:29.734Z,1.98
2023-02-03T05:44:51.900Z,1.40
2023-02-03T05:48:14.210Z,1.37
2023-02-03T05:51:36.814Z,1.92
2023-02-03T05:54:59.245Z,1.50
2023-02-03T05:58:23.185Z,1.25
2023-02-03T06:01:45.640Z,1.10
2023-02-03T06:05:09.100Z,1.15
2023-02-03T06:08:31.289Z,1.30
2023-02-03T06:11:53.878Z,1.30
2023-02-03T06:15:17.968Z,1.27
2023-02-03T06:18:40.675Z,3.97
2023-02-03T06:22:03.441Z,9.88
2023-02-03T06:25:26.374Z,2.95
2023-02-03T06:28:49.051Z,4.00
2023-02-03T06:32:13.042Z,4.65
2023-02-03T06:35:35.690Z,4.20
2023-02-03T06:38:59.260Z,3.80
2023-02-03T06:42:21.416Z,2.83
2023-02-03T06:45:46.066Z,3.90
2023-02-03T06:49:09.913Z,3.83
2023-02-03T06:52:32.286Z,3.60
2023-02-03T06:55:54.916Z,3.70
2023-02-03T06:59:17.555Z,3.00
2023-02-03T07:02:40.139Z,3.97
2023-02-03T07:06:04.921Z,6.78
2023-02-03T07:09:27.543Z,5.73
2023-02-03T07:12:50.866Z,5.78
2023-02-03T07:16:13.667Z,3.90
2023-02-03T07:19:36.549Z,4.45
2023-02-03T07:23:00.418Z,8.27
2023-02-03T07:26:25.287Z,10.88
2023-02-03T07:29:47.844Z,11.05
2023-02-03T07:33:10.359Z,13.35
2023-02-03T07:36:32.817Z,13.43
2023-02-03T07:39:56.665Z,10.82
2023-02-03T07:43:18.876Z,9.57
2023-02-03T07:46:44.949Z,7.37
2023-02-03T07:50:07.735Z,6.33
2023-02-03T07:53:30.116Z,6.10
2023-02-03T07:56:54.466Z,7.22
2023-02-03T08:00:18.276Z,5.05
2023-02-03T08:03:41.445Z,3.93
2023-02-03T08:07:03.831Z,6.35
2023-02-03T08:10:26.703Z,5.30
2023-02-03T08:13:51.075Z,4.75
2023-02-03T08:17:13.399Z,3.60
2023-02-03T08:20:35.679Z,4.00
2023-02-03T08:23:58.118Z,4.80
2023-02-03T08:27:21.749Z,4.55
2023-02-03T08:30:45.995Z,4.77
2023-02-03T08:34:08.344Z,4.32
2023-02-03T08:37:32.553Z,3.75
2023-02-03T08:40:54.759Z,5.80
2023-02-03T08:44:18.667Z,5.10
2023-02-03T08:47:42.250Z,3.33
2023-02-03T08:51:10.192Z,3.65
2023-02-03T08:54:32.371Z,3.35
2023-02-03T08:57:54.912Z,6.43
2023-02-03T09:01:17.470Z,6.25
2023-02-03T09:04:42.002Z,4.43
2023-02-03T09:08:04.576Z,5.22
2023-02-03T09:11:27.185Z,4.63
2023-02-03T09:14:49.649Z,0.95
2023-02-03T09:18:12.824Z,3.37
2023-02-03T09:21:43.791Z,2.40
2023-02-03T09:25:13.988Z,2.87
2023-02-03T09:28:36.011Z,1.02
2023-02-03T09:32:00.211Z,1.90
2023-02-03T09:35:22.411Z,3.12
2023-02-03T09:38:46.316Z,1.47
2023-02-03T09:42:24.178Z,2.28
2023-02-03T09:45:47.118Z,2.62
2023-02-03T09:49:14.957Z,1.48
2023-02-03T09:52:39.443Z,2.97
2023-02-03T09:56:03.468Z,6.00
2023-02-03T09:59:26.144Z,5.43
2023-02-03T10:02:55.623Z,6.40
2023-02-03T10:06:23.636Z,6.57
2023-02-03T10:09:51.561Z,6.82
2023-02-03T10:13:24.198Z,7.57
2023-02-03T10:16:53.625Z,4.68
2023-02-03T10:20:18.940Z,4.72
2023-02-03T10:23:41.991Z,7.10
2023-02-03T10:27:05.077Z,6.68
2023-02-03T10:30:29.860Z,6.25
2023-02-03T10:33:57.854Z,4.57
2023-02-03T10:37:29.216Z,5.32
2023-02-03T10:40:53.520Z,4.47
2023-02-03T10:44:15.986Z,5.62
2023-02-03T10:47:41.101Z,5.72
2023-02-03T10:51:03.374Z,6.60
2023-02-03T10:54:32.218Z,4.57
2023-02-03T10:57:54.608Z,5.22
2023-02-03T11:01:18.324Z,5.18
2023-02-03T11:04:44.918Z,5.90
2023-02-03T11:08:12.132Z,6.65
2023-02-03T11:11:37.372Z,6.53
2023-02-03T11:15:00.539Z,5.70
2023-02-03T11:18:37.837Z,4.47
2023-02-03T11:22:02.114Z,3.85
2023-02-03T11:25:29.572Z,11.15
2023-02-03T11:28:54.121Z,6.97
2023-02-03T11:32:18.609Z,6.50
2023-02-03T11:35:41.400Z,6.32
2023-02-03T11:39:22.340Z,6.65
2023-02-03T11:42:45.959Z,3.92
2023-02-03T11:46:09.791Z,3.85
2023-02-03T11:50:07.794Z,5.10
2023-02-03T11:53:51.231Z,4.18
2023-02-03T11:57:30.621Z,5.47
2023-02-03T12:00:58.169Z,3.70
2023-02-03T12:04:36.648Z,5.35
2023-02-03T12:08:05.986Z,4.65
2023-02-03T12:11:35.947Z,4.83
2023-02-03T12:15:04.279Z,2.72
2023-02-03T12:18:34.520Z,2.85
2023-02-03T12:21:59.461Z,2.60
2023-02-03T12:25:31.340Z,0.87
2023-02-03T12:28:58.016Z,3.25
2023-02-03T12:32:26.310Z,3.83
2023-02-03T12:35:50.360Z,2.50
2023-02-03T12:39:16.298Z,4.80
2023-02-03T12:42:40.839Z,2.90
2023-02-03T12:46:05.889Z,4.07
2023-02-03T12:49:34.834Z,2.78
2023-02-03T12:52:58.638Z,2.53
2023-02-03T12:56:27.173Z,2.62
2023-02-03T13:00:00.156Z,2.80
2023-02-03T13:03:26.241Z,4.55
2023-02-03T13:06:54.095Z,3.43
2023-02-03T13:10:18.940Z,3.10
2023-02-03T13:13:45.075Z,3.33
2023-02-03T13:17:09.324Z,6.53
2023-02-03T13:20:36.055Z,4.67
2023-02-03T13:24:00.030Z,1.45
2023-02-03T13:27:37.075Z,4.12
2023-02-03T13:31:18.917Z,10.43
2023-02-03T13:34:49.668Z,12.53
2023-02-03T13:38:39.335Z,6.57
2023-02-03T13:42:15.542Z,5.00
2023-02-03T13:45:40.105Z,7.22
2023-02-03T13:49:03.984Z,6.07
2023-02-03T13:52:27.607Z,7.22
2023-02-03T13:55:54.815Z,7.03
2023-02-03T13:59:33.070Z,8.40
2023-02-03T14:02:56.116Z,3.93
2023-02-03T14:07:00.966Z,6.68
2023-02-03T14:10:24.375Z,7.57
2023-02-03T14:13:47.470Z,4.60
2023-02-03T14:17:31.334Z,8.80
2023-02-03T14:21:14.395Z,7.85
2023-02-03T14:24:38.021Z,7.05
2023-02-03T14:28:00.851Z,7.62
2023-02-03T14:31:23.640Z,7.93
2023-02-03T14:34:48.158Z,4.12
2023-02-03T14:38:12.255Z,8.50
2023-02-03T14:41:43.171Z,5.10
2023-02-03T14:45:12.664Z,11.90
2023-02-03T14:48:43.995Z,13.73
2023-02-03T14:52:20.778Z,11.52
2023-02-03T14:55:49.559Z,8.05
2023-02-03T14:59:12.319Z,13.90
2023-02-03T15:02:36.289Z,8.25
2023-02-03T15:06:03.344Z,11.35
2023-02-03T15:09:32.651Z,11.45
2023-02-03T15:12:56.048Z,11.97
2023-02-03T15:16:20.591Z,10.05
2023-02-03T15:19:43.605Z,9.65
2023-02-03T15:23:19.497Z,10.80
2023-02-03T15:26:47.814Z,8.50
2023-02-03T15:30:17.387Z,11.23
2023-02-03T15:33:39.795Z,12.88
2023-02-03T15:37:03.883Z,9.90
2023-02-03T15:40:27.408Z,10.68
2023-02-03T15:43:52.089Z,10.38
2023-02-03T15:47:21.375Z,10.30
2023-02-03T15:50:44.526Z,9.63
2023-02-03T15:54:10.347Z,8.25
2023-02-03T15:57:34.675Z,8.60
2023-02-03T16:00:59.143Z,6.18
2023-02-03T16:04:22.092Z,16.40
2023-02-03T16:07:44.694Z,15.02
2023-02-03T16:11:24.504Z,14.77
2023-02-03T16:14:47.119Z,7.15
2023-02-03T16:18:14.226Z,9.65
2023-02-03T16:21:37.234Z,10.07
2023-02-03T16:25:14.491Z,12.98
2023-02-03T16:28:54.058Z,4.35
2023-02-03T16:32:36.769Z,6.62
2023-02-03T16:36:21.479Z,3.50
2023-02-03T16:40:01.644Z,7.03
2023-02-03T16:43:41.415Z,5.80
2023-02-03T16:47:21.707Z,8.27
2023-02-03T16:50:54.142Z,5.50
2023-02-03T16:54:19.352Z,11.07
2023-02-03T16:57:42.212Z,7.87
2023-02-03T17:01:05.799Z,11.85
2023-02-03T17:04:28.215Z,9.32
2023-02-03T17:07:51.396Z,6.68
2023-02-03T17:11:17.241Z,7.75
2023-02-03T17:14:42.902Z,4.40
2023-02-03T17:18:05.800Z,3.33
2023-02-03T17:21:30.647Z,5.25
2023-02-03T17:24:54.724Z,3.00
2023-02-03T17:28:20.082Z,4.35
2023-02-03T17:31:44.701Z,3.55
2023-02-03T17:35:09.195Z,2.12
2023-02-03T17:38:32.147Z,5.85
2023-02-03T17:56:28.226Z,4.75
2023-02-03T17:59:55.671Z,4.40
2023-02-03T18:03:24.157Z,3.87
2023-02-03T18:06:49.765Z,3.70
2023-02-03T18:10:14.359Z,2.43
2023-02-03T18:13:39.002Z,6.68
2023-02-03T18:17:02.431Z,3.35
2023-02-03T18:20:28.442Z,8.32
2023-02-03T18:23:54.301Z,8.90
2023-02-03T18:27:17.432Z,5.35
2023-02-03T18:30:41.061Z,6.10
2023-02-03T18:34:07.089Z,4.45
2023-02-03T18:37:32.983Z,6.37
2023-02-03T18:40:59.108Z,3.05
2023-02-03T18:44:25.991Z,5.30
2023-02-03T18:47:51.196Z,5.93
2023-02-03T18:51:17.119Z,5.43
2023-02-03T18:54:46.034Z,4.18
2023-02-03T18:58:10.669Z,2.65
2023-02-03T19:01:34.989Z,2.78
2023-02-03T19:04:59.710Z,2.83
2023-02-03T19:08:24.613Z,3.78
2023-02-03T19:11:50.418Z,2.75
2023-02-03T19:15:18.868Z,5.28
2023-02-03T19:18:44.759Z,4.70
2023-02-03T19:22:14.080Z,3.83
2023-02-03T19:25:39.509Z,2.97
2023-02-03T19:29:06.286Z,4.28
2023-02-03T19:32:33.512Z,4.63
2023-02-03T19:35:58.122Z,4.00
2023-02-03T19:39:22.991Z,5.68
2023-02-03T19:42:47.613Z,5.32
2023-02-03T19:46:16.284Z,4.77
2023-02-03T19:49:49.147Z,4.65
2023-02-03T19:53:12.877Z,4.10
2023-02-03T19:56:37.592Z,3.67
2023-02-03T20:00:05.848Z,2.17
2023-02-03T20:03:41.734Z,2.35
2023-02-03T20:07:07.317Z,0.57
2023-02-03T20:10:33.321Z,0.90
2023-02-03T20:13:59.845Z,0.77
2023-02-03T20:17:24.822Z,0.90
2023-02-03T20:20:55.961Z,1.00
2023-02-03T20:24:22.369Z,0.50
2023-02-03T20:27:47.829Z,0.60
2023-02-03T20:31:12.287Z,0.60
2023-02-03T20:34:40.806Z,0.30
2023-02-03T20:38:06.421Z,0.20
2023-02-03T20:41:31.558Z,0.20
2023-02-03T20:44:55.897Z,0.95
2023-02-03T20:48:26.641Z,0.40
2023-02-03T20:51:53.276Z,0.30
2023-02-03T20:55:20.989Z,0.27
2023-02-03T20:58:47.193Z,0.50
2023-02-03T21:02:20.568Z,0.40
2023-02-03T21:05:50.957Z,0.43
2023-02-03T21:09:21.370Z,0.47
2023-02-03T21:12:47.668Z,0.73
2023-02-03T21:16:18.493Z,1.25
2023-02-03T21:19:44.899Z,1.10
2023-02-03T21:23:13.767Z,0.63
2023-02-03T21:26:39.853Z,0.60
2023-02-03T21:30:24.941Z,0.60
2023-02-03T21:33:52.076Z,0.30
2023-02-03T21:37:44.080Z,0.50
2023-02-03T21:41:16.646Z,0.50
2023-02-03T21:44:43.707Z,1.42
2023-02-03T21:48:28.792Z,0.50
2023-02-03T21:51:51.948Z,0.67
2023-02-03T21:55:15.772Z,0.80
2023-02-03T21:58:38.913Z,0.62
2023-02-03T22:02:03.995Z,0.55
2023-02-03T22:05:28.756Z,0.50
2023-02-03T22:08:54.346Z,0.80
2023-02-03T22:12:17.354Z,0.57
2023-02-03T22:15:39.922Z,0.57
2023-02-03T22:19:02.944Z,0.67
2023-02-03T22:22:26.578Z,0.52
2023-02-03T22:25:49.290Z,0.70
2023-02-03T22:29:11.807Z,1.00
2023-02-03T22:32:34.410Z,0.87
2023-02-03T22:35:56.975Z,0.47
2023-02-03T22:39:20.907Z,0.80
2023-02-03T22:42:43.445Z,0.40
2023-02-03T22:46:07.229Z,0.83
2023-02-03T22:49:30.071Z,0.60
2023-02-03T22:52:54.201Z,0.60
2023-02-03T22:56:17.837Z,1.42
2023-02-03T22:59:40.589Z,2.03
2023-02-03T23:03:04.232Z,1.62
2023-02-03T23:06:26.976Z,1.50
2023-02-03T23:09:49.445Z,3.47
2023-02-03T23:13:13.382Z,0.77
2023-02-03T23:16:35.846Z,1.50
2023-02-03T23:20:00.601Z,1.23
2023-02-03T23:23:22.808Z,0.77
2023-02-03T23:26:45.238Z,1.30
2023-02-03T23:30:10.390Z,0.52
2023-02-03T23:33:32.778Z,0.52
2023-02-03T23:36:54.251Z,0.60
2023-02-03T23:40:17.276Z,0.90
2023-02-03T23:43:39.639Z,0.55
2023-02-03T23:47:04.242Z,0.88
2023-02-03T23:50:26.480Z,1.02
2023-02-03T23:53:49.570Z,2.03
2023-02-03T23:57:12.041Z,1.35
